Time;durP1;ratioP1;P1;durP2;ratioP2;P2;SDS_P1;SDS_P2;PMS_P1;PMS_P2;Temp;Humidity;BMP_temperature;BMP_pressure;BME280_temperature;BME280_humidity;BME280_pressure;Samples;Min_cycle;Max_cycle;Signal;HPM_P1;HPM_P2
2022/01/04 00:01:59;;;;;;;6.43;1.50;;;20.20;56.40;;;;;;4994137;28;20046;-67
2022/01/04 00:04:25;;;;;;;3.50;1.10;;;20.10;56.30;;;;;;5006140;28;20491;-67
2022/01/04 00:06:50;;;;;;;3.70;1.30;;;20.20;56.30;;;;;;5014284;28;20189;-67
2022/01/04 00:09:16;;;;;;;6.75;1.60;;;20.20;56.30;;;;;;5014349;28;20054;-67
2022/01/04 00:11:56;;;;;;;5.38;1.30;;;20.10;56.30;;;;;;5013757;28;20048;-67
2022/01/04 00:14:21;;;;;;;4.18;1.23;;;20.20;56.30;;;;;;4997737;28;20042;-67
2022/01/04 00:16:47;;;;;;;3.58;1.13;;;20.10;56.40;;;;;;4994262;28;20073;-67
2022/01/04 00:19:13;;;;;;;5.07;1.70;;;20.10;56.40;;;;;;4995434;28;20046;-67
2022/01/04 00:21:39;;;;;;;5.90;1.38;;;20.10;56.30;;;;;;4995983;28;20052;-67
2022/01/04 00:24:04;;;;;;;4.20;1.20;;;20.10;56.30;;;;;;4995342;28;20049;-68
2022/01/04 00:26:30;;;;;;;5.13;1.33;;;20.10;56.30;;;;;;4993952;28;20046;-68
2022/01/04 00:28:56;;;;;;;3.42;1.40;;;20.10;56.20;;;;;;4994288;28;20042;-68
2022/01/04 00:31:21;;;;;;;4.35;1.40;;;20.10;56.20;;;;;;4994946;28;20042;-68
2022/01/04 00:33:47;;;;;;;5.25;1.50;;;20.10;56.20;;;;;;4994062;28;20104;-68
2022/01/04 00:36:13;;;;;;;5.85;1.42;;;20.10;56.30;;;;;;4994252;28;20050;-68
2022/01/04 00:38:38;;;;;;;5.80;1.15;;;20.10;56.30;;;;;;4992434;28;20083;-68
2022/01/04 00:41:04;;;;;;;3.88;1.30;;;20.10;56.20;;;;;;4993663;28;20081;-67
2022/01/04 00:43:29;;;;;;;5.30;1.20;;;20.00;56.10;;;;;;4994104;28;20050;-67
2022/01/04 00:45:55;;;;;;;3.67;1.15;;;20.10;56.20;;;;;;4993409;28;20046;-68
2022/01/04 00:50:46;;;;;;;3.33;1.10;;;20.00;56.20;;;;;;4995122;28;20047;-68
2022/01/04 00:53:12;;;;;;;4.85;1.10;;;20.00;56.20;;;;;;4994491;28;20054;-67
2022/01/04 00:55:37;;;;;;;5.22;1.20;;;20.00;56.20;;;;;;4993356;28;20402;-68
2022/01/04 00:58:03;;;;;;;3.20;1.20;;;20.00;56.10;;;;;;4994291;28;20068;-67
2022/01/04 01:00:29;;;;;;;4.22;1.15;;;20.00;56.10;;;;;;4992486;28;20046;-67
2022/01/04 01:02:54;;;;;;;4.55;0.98;;;20.00;56.10;;;;;;4994248;28;20513;-67
2022/01/04 01:05:22;;;;;;;4.70;1.17;;;20.00;56.10;;;;;;4992747;28;20552;-67
2022/01/04 01:07:47;;;;;;;3.22;1.20;;;20.00;56.20;;;;;;4992213;28;20065;-68
2022/01/04 01:12:39;;;;;;;4.45;1.20;;;20.00;56.20;;;;;;4993355;28;20046;-68
2022/01/04 01:15:05;;;;;;;3.50;0.90;;;20.00;56.10;;;;;;4992758;28;20049;-67
2022/01/04 01:17:31;;;;;;;4.28;1.00;;;20.00;56.20;;;;;;4993482;28;20050;-67
2022/01/04 01:19:57;;;;;;;3.70;1.10;;;20.00;56.20;;;;;;4992911;28;20046;-67
2022/01/04 01:22:23;;;;;;;4.05;1.00;;;20.00;56.20;;;;;;4993042;28;20100;-68
2022/01/04 01:24:48;;;;;;;3.45;0.93;;;19.90;56.10;;;;;;4993247;28;20470;-68
2022/01/04 01:27:14;;;;;;;4.28;1.30;;;19.90;56.80;;;;;;4994331;28;20050;-68
2022/01/04 01:29:39;;;;;;;2.38;0.88;;;19.90;56.10;;;;;;4992808;28;20046;-67
2022/01/04 01:32:05;;;;;;;5.25;1.20;;;19.90;56.10;;;;;;4993226;28;20046;-67
2022/01/04 01:34:31;;;;;;;4.50;1.40;;;19.90;56.10;;;;;;4992747;28;20166;-67
2022/01/04 01:36:56;;;;;;;5.70;1.17;;;19.90;56.10;;;;;;4993666;28;20055;-68
2022/01/04 01:39:22;;;;;;;3.53;1.13;;;19.90;56.10;;;;;;4994494;28;20046;-68
2022/01/04 01:41:47;;;;;;;3.45;1.00;;;19.90;56.10;;;;;;4993410;28;20049;-68
2022/01/04 01:44:13;;;;;;;6.78;1.30;;;19.90;56.10;;;;;;4994102;28;20366;-68
2022/01/04 01:46:38;;;;;;;4.35;1.10;;;19.90;56.10;;;;;;4994266;28;20505;-67
2022/01/04 01:49:04;;;;;;;3.88;1.10;;;19.90;56.10;;;;;;4993123;28;20046;-68
2022/01/04 01:51:30;;;;;;;3.08;0.90;;;19.90;56.10;;;;;;4992817;28;20043;-67
2022/01/04 01:53:56;;;;;;;4.20;1.20;;;19.80;56.00;;;;;;4976480;28;20157;-67
2022/01/04 01:56:21;;;;;;;2.85;0.82;;;19.80;56.00;;;;;;4975749;28;20137;-68
2022/01/04 01:58:47;;;;;;;4.28;1.00;;;19.80;56.00;;;;;;4993527;28;20051;-67
2022/01/04 02:01:13;;;;;;;4.13;1.10;;;19.80;55.90;;;;;;4992540;28;20039;-67
2022/01/04 02:03:39;;;;;;;6.63;1.35;;;19.80;56.00;;;;;;4992050;28;20057;-67
2022/01/04 02:06:05;;;;;;;3.55;1.08;;;19.80;56.00;;;;;;4992460;28;20038;-68
2022/01/04 02:08:31;;;;;;;4.13;1.05;;;19.80;56.00;;;;;;4993305;28;20058;-68
2022/01/04 02:10:57;;;;;;;3.75;1.15;;;19.80;56.00;;;;;;4992123;28;20573;-67
2022/01/04 02:13:24;;;;;;;5.80;1.17;;;19.80;56.00;;;;;;4992607;28;20596;-68
2022/01/04 02:15:50;;;;;;;4.68;1.00;;;19.80;55.90;;;;;;4991843;28;20076;-67
2022/01/04 02:18:16;;;;;;;3.97;0.90;;;19.80;56.70;;;;;;4991766;28;20516;-67
2022/01/04 02:20:42;;;;;;;3.60;1.00;;;19.80;56.10;;;;;;4992114;28;20042;-67
2022/01/04 02:23:07;;;;;;;3.92;0.90;;;19.80;56.00;;;;;;4993347;28;20105;-68
2022/01/04 02:25:33;;;;;;;2.45;0.77;;;19.80;56.00;;;;;;4992901;28;20078;-67
2022/01/04 02:27:58;;;;;;;4.07;1.10;;;19.80;56.00;;;;;;4992506;28;20125;-67
2022/01/04 02:30:24;;;;;;;2.72;1.00;;;19.80;56.10;;;;;;4975961;28;20129;-67
2022/01/04 02:32:49;;;;;;;3.72;0.93;;;19.80;56.10;;;;;;4991572;28;20137;-67
2022/01/04 02:35:16;;;;;;;4.90;1.10;;;19.80;56.00;;;;;;4991246;28;20081;-67
2022/01/04 02:37:42;;;;;;;5.30;1.10;;;19.80;56.00;;;;;;4990512;28;20074;-67
2022/01/04 02:40:08;;;;;;;3.20;0.90;;;19.80;56.10;;;;;;4991490;28;20074;-67
2022/01/04 02:42:33;;;;;;;2.72;1.05;;;19.80;56.00;;;;;;4991897;28;20066;-67
2022/01/04 02:45:00;;;;;;;4.70;1.40;;;19.80;56.00;;;;;;4991035;28;20050;-67
2022/01/04 02:47:27;;;;;;;4.45;1.02;;;19.80;56.10;;;;;;4993594;28;20133;-67
2022/01/04 02:49:52;;;;;;;4.43;1.00;;;19.80;56.10;;;;;;4992022;28;20498;-67
2022/01/04 02:52:18;;;;;;;4.13;0.98;;;19.80;56.10;;;;;;4992809;28;20096;-67
2022/01/04 02:54:43;;;;;;;4.63;1.40;;;19.80;56.00;;;;;;4991601;28;20502;-67
2022/01/04 02:57:08;;;;;;;2.80;1.10;;;19.80;56.10;;;;;;4992129;28;20046;-67
2022/01/04 02:59:34;;;;;;;2.22;0.85;;;19.80;56.00;;;;;;4989778;28;20058;-66
2022/01/04 03:02:00;;;;;;;4.82;1.13;;;19.80;56.00;;;;;;4990807;28;20053;-67
2022/01/04 03:04:25;;;;;;;4.47;1.08;;;19.80;56.00;;;;;;4990558;28;20410;-67
2022/01/04 03:06:51;;;;;;;4.25;1.23;;;19.80;56.10;;;;;;4989739;28;20038;-67
2022/01/04 03:09:16;;;;;;;3.60;1.17;;;19.90;56.10;;;;;;4991998;28;20055;-67
2022/01/04 03:11:42;;;;;;;3.92;1.20;;;19.80;56.70;;;;;;4990795;28;20058;-66
2022/01/04 03:14:07;;;;;;;2.35;0.90;;;19.90;56.10;;;;;;4990554;28;20493;-67
2022/01/04 03:16:33;;;;;;;3.63;0.90;;;19.90;56.10;;;;;;4992761;28;20478;-67
2022/01/04 03:21:24;;;;;;;2.70;0.90;;;19.90;56.10;;;;;;4990971;28;20049;-67
2022/01/04 03:23:49;;;;;;;2.53;0.80;;;19.90;56.00;;;;;;4990693;28;20106;-67
2022/01/04 03:26:15;;;;;;;3.05;0.90;;;20.00;56.10;;;;;;4991519;28;20478;-67
2022/01/04 03:28:40;;;;;;;3.58;1.20;;;20.00;56.10;;;;;;4992093;28;20054;-68
2022/01/04 03:31:07;;;;;;;3.22;1.08;;;20.00;56.10;;;;;;4994884;28;20046;-68
2022/01/04 03:33:33;;;;;;;4.03;1.13;;;20.00;56.00;;;;;;4994700;28;20046;-68
2022/01/04 03:35:59;;;;;;;5.75;1.30;;;20.00;56.00;;;;;;4994261;28;20481;-68
2022/01/04 03:38:24;;;;;;;3.92;0.98;;;20.00;56.00;;;;;;4995206;28;20047;-67
2022/01/04 03:40:50;;;;;;;3.55;0.90;;;20.00;56.00;;;;;;4993982;28;20105;-67
2022/01/04 03:43:16;;;;;;;2.53;1.00;;;20.00;56.00;;;;;;4993919;28;20053;-68
2022/01/04 03:45:41;;;;;;;2.30;0.90;;;20.10;56.10;;;;;;4993366;28;20034;-68
2022/01/04 03:48:07;;;;;;;2.92;0.85;;;20.10;56.10;;;;;;4994151;28;20138;-67
2022/01/04 03:50:32;;;;;;;2.97;0.93;;;20.10;56.00;;;;;;4995609;28;20050;-68
2022/01/04 03:52:58;;;;;;;1.95;0.70;;;20.10;56.00;;;;;;4995025;28;20445;-67
2022/01/04 03:55:23;;;;;;;2.78;0.93;;;20.10;56.10;;;;;;4995526;28;20077;-67
2022/01/04 03:57:49;;;;;;;2.67;1.10;;;20.10;56.00;;;;;;4994716;28;20125;-67
2022/01/04 04:00:15;;;;;;;1.80;0.90;;;20.10;56.10;;;;;;4995256;28;20050;-67
2022/01/04 04:02:40;;;;;;;3.90;1.08;;;20.10;56.10;;;;;;4993577;28;20042;-67
2022/01/04 04:05:06;;;;;;;3.20;1.10;;;20.10;56.00;;;;;;4993951;28;20038;-66
2022/01/04 04:07:32;;;;;;;3.47;0.80;;;20.10;56.00;;;;;;4992986;28;20058;-67
2022/01/04 04:09:57;;;;;;;3.20;1.00;;;20.10;56.00;;;;;;4993410;28;20050;-67
2022/01/04 04:12:23;;;;;;;3.55;1.10;;;20.20;56.00;;;;;;4996054;28;20133;-67
2022/01/04 04:14:49;;;;;;;3.60;0.95;;;20.20;56.10;;;;;;4995712;28;20092;-67
2022/01/04 04:17:15;;;;;;;4.10;1.10;;;20.20;56.70;;;;;;4994061;28;20070;-68
2022/01/04 04:19:40;;;;;;;3.60;0.80;;;20.20;56.00;;;;;;4995701;28;20490;-67
2022/01/04 04:22:06;;;;;;;3.70;1.20;;;20.20;56.00;;;;;;4994729;28;20078;-67
2022/01/04 04:24:31;;;;;;;3.97;1.05;;;20.20;56.00;;;;;;4995033;28;20050;-68
2022/01/04 04:26:57;;;;;;;3.30;0.90;;;20.20;56.00;;;;;;4993225;28;20046;-68
2022/01/04 04:29:22;;;;;;;5.93;1.42;;;20.20;56.00;;;;;;4994842;28;20050;-67
2022/01/04 04:31:48;;;;;;;3.42;1.10;;;20.20;56.00;;;;;;4991995;28;20050;-68
2022/01/04 04:34:13;;;;;;;4.30;1.27;;;20.20;56.00;;;;;;4993726;28;20054;-67
2022/01/04 04:36:39;;;;;;;3.70;1.30;;;20.20;55.90;;;;;;4995007;28;20042;-68
2022/01/04 04:39:04;;;;;;;4.55;1.13;;;20.20;55.90;;;;;;4992165;28;20449;-67
2022/01/04 04:41:30;;;;;;;3.38;1.10;;;20.20;55.90;;;;;;4994720;28;20463;-68
2022/01/04 04:43:55;;;;;;;4.32;1.00;;;20.20;55.90;;;;;;4993766;28;20050;-67
2022/01/04 04:46:21;;;;;;;3.50;1.00;;;20.20;55.90;;;;;;4994216;28;20077;-68
2022/01/04 04:48:47;;;;;;;2.25;0.98;;;20.20;55.90;;;;;;4995076;28;20069;-68
2022/01/04 04:51:12;;;;;;;3.45;1.10;;;20.30;56.00;;;;;;4994581;28;20096;-68
2022/01/04 04:53:38;;;;;;;3.28;1.23;;;20.20;55.90;;;;;;4994395;28;20451;-68
2022/01/04 04:56:04;;;;;;;2.40;0.85;;;20.20;56.00;;;;;;4993064;28;20046;-68
2022/01/04 04:58:31;;;;;;;3.30;1.10;;;20.30;55.90;;;;;;4993634;28;20050;-67
2022/01/04 05:00:56;;;;;;;4.28;1.50;;;20.30;55.90;;;;;;4990249;28;20476;-67
2022/01/04 05:03:22;;;;;;;2.92;1.20;;;20.30;55.90;;;;;;4994913;28;20096;-68
2022/01/04 05:05:47;;;;;;;2.72;1.15;;;20.30;55.90;;;;;;5010355;28;20042;-67
2022/01/04 05:08:13;;;;;;;4.60;1.40;;;20.30;55.90;;;;;;5012559;28;20064;-68
2022/01/04 05:10:38;;;;;;;3.08;1.20;;;20.30;55.90;;;;;;5006864;28;20077;-67
2022/01/04 05:13:04;;;;;;;4.50;1.50;;;20.30;55.90;;;;;;4991523;28;20057;-67
2022/01/04 05:15:29;;;;;;;4.50;1.02;;;20.30;55.90;;;;;;4993676;28;20038;-67
2022/01/04 05:17:55;;;;;;;3.28;1.25;;;20.30;55.90;;;;;;4992623;28;20502;-68
2022/01/04 05:20:20;;;;;;;3.13;1.10;;;20.30;55.90;;;;;;4994525;28;20129;-67
2022/01/04 05:22:46;;;;;;;2.65;1.00;;;20.30;55.90;;;;;;4994533;28;20482;-67
2022/01/04 05:25:11;;;;;;;2.92;1.20;;;20.30;55.90;;;;;;4993477;28;20042;-67
2022/01/04 05:27:37;;;;;;;4.05;1.20;;;20.30;55.80;;;;;;4992904;28;20379;-68
2022/01/04 05:30:04;;;;;;;4.10;1.27;;;20.30;55.80;;;;;;4992864;28;20046;-68
2022/01/04 05:32:30;;;;;;;2.92;0.95;;;20.40;55.90;;;;;;4992891;28;20042;-67
2022/01/04 05:34:55;;;;;;;3.88;1.17;;;20.30;55.80;;;;;;4993967;28;20042;-67
2022/01/04 05:37:20;;;;;;;4.25;1.10;;;20.40;55.90;;;;;;4993350;28;20062;-68
2022/01/04 05:39:46;;;;;;;3.85;1.20;;;20.30;55.80;;;;;;4993427;28;20394;-68
2022/01/04 05:42:11;;;;;;;4.88;1.10;;;20.40;55.90;;;;;;4992839;28;20370;-68
2022/01/04 05:44:37;;;;;;;3.78;1.20;;;20.30;55.80;;;;;;4993347;28;20054;-68
2022/01/04 05:47:04;;;;;;;2.83;1.00;;;20.40;55.90;;;;;;4992639;28;20486;-68
2022/01/04 05:49:30;;;;;;;5.00;1.30;;;20.40;55.90;;;;;;4993884;28;20109;-68
2022/01/04 05:51:56;;;;;;;2.65;1.40;;;20.40;55.80;;;;;;4993414;28;20554;-67
2022/01/04 05:54:21;;;;;;;3.40;1.20;;;20.40;55.90;;;;;;4992682;28;20038;-67
2022/01/04 05:56:47;;;;;;;4.07;1.30;;;20.40;55.80;;;;;;4991922;28;20054;-67
2022/01/04 05:59:12;;;;;;;3.15;1.10;;;20.40;55.80;;;;;;4994188;28;20042;-67
2022/01/04 06:01:38;;;;;;;4.18;1.45;;;20.40;55.80;;;;;;4992362;28;20482;-67
2022/01/04 06:04:03;;;;;;;2.55;1.10;;;20.40;55.80;;;;;;4991841;28;20043;-67
2022/01/04 06:06:29;;;;;;;4.05;0.98;;;20.40;55.80;;;;;;4993868;28;20085;-67
2022/01/04 06:08:55;;;;;;;3.17;1.10;;;20.40;55.80;;;;;;4991433;28;20082;-68
2022/01/04 06:17:03;;;;;;;2.67;1.20;;;20.40;55.80;;;;;;4991265;28;20565;-67
2022/01/04 06:19:28;;;;;;;3.95;1.25;;;20.40;55.80;;;;;;4990952;28;20426;-67
2022/01/04 06:21:54;;;;;;;3.53;1.30;;;20.40;55.80;;;;;;4990859;28;20517;-67
2022/01/04 06:24:19;;;;;;;1.70;1.00;;;20.40;55.80;;;;;;4990516;28;20050;-67
2022/01/04 06:26:45;;;;;;;4.57;1.50;;;20.50;55.80;;;;;;4992521;28;20049;-68
2022/01/04 06:29:11;;;;;;;2.88;1.20;;;20.40;55.70;;;;;;4991381;28;20073;-68
2022/01/04 06:31:39;;;;;;;3.80;1.40;;;20.50;55.80;;;;;;4991806;28;20042;-67
2022/01/04 06:34:04;;;;;;;2.80;1.27;;;20.50;55.80;;;;;;4975583;28;20088;-67
2022/01/04 06:36:30;;;;;;;3.95;1.40;;;20.50;55.80;;;;;;4991977;28;20132;-68
2022/01/04 06:38:55;;;;;;;3.08;1.10;;;20.50;55.80;;;;;;4992325;28;20409;-67
2022/01/04 06:41:21;;;;;;;3.08;1.17;;;20.50;55.80;;;;;;4992079;28;20054;-68
2022/01/04 06:43:47;;;;;;;3.67;1.10;;;20.50;55.80;;;;;;4992078;28;20042;-68
2022/01/04 06:46:13;;;;;;;3.15;1.08;;;20.50;55.80;;;;;;4991396;28;20054;-68
2022/01/04 06:48:40;;;;;;;3.65;1.30;;;20.50;55.80;;;;;;4992267;28;20050;-68
2022/01/04 06:51:05;;;;;;;2.78;1.08;;;20.50;55.70;;;;;;4991415;28;20089;-67
2022/01/04 06:53:31;;;;;;;3.17;1.20;;;20.50;55.70;;;;;;4993414;28;20050;-67
2022/01/04 06:55:57;;;;;;;3.15;1.00;;;20.50;55.70;;;;;;4990959;28;20097;-67
2022/01/04 06:58:22;;;;;;;2.95;0.95;;;20.60;55.80;;;;;;4991364;28;20093;-67
2022/01/04 07:00:48;;;;;;;3.75;1.00;;;20.50;55.70;;;;;;4992878;28;20042;-67
2022/01/04 07:03:13;;;;;;;3.10;1.00;;;20.60;55.80;;;;;;4994876;28;20050;-67
2022/01/04 07:05:39;;;;;;;2.25;1.20;;;20.50;55.70;;;;;;4995534;28;20137;-67
2022/01/04 07:08:05;;;;;;;2.47;1.23;;;20.60;55.70;;;;;;4995802;28;20082;-67
2022/01/04 07:10:30;;;;;;;2.95;1.00;;;20.60;55.80;;;;;;4995751;28;20129;-67
2022/01/04 07:12:56;;;;;;;2.72;1.10;;;20.60;55.80;;;;;;4996289;28;20042;-67
2022/01/04 07:15:21;;;;;;;3.40;1.23;;;20.60;55.70;;;;;;4995703;28;20057;-63
2022/01/04 07:17:47;;;;;;;4.30;1.20;;;20.60;55.70;;;;;;4996478;28;20100;-68
2022/01/04 07:20:12;;;;;;;3.50;1.30;;;20.60;55.80;;;;;;4996735;28;20407;-66
2022/01/04 07:22:38;;;;;;;2.95;1.25;;;20.60;55.80;;;;;;4995577;28;20477;-65
2022/01/04 07:25:04;;;;;;;3.30;1.20;;;20.60;55.80;;;;;;4990054;28;20051;-62
2022/01/04 07:27:30;;;;;;;3.83;1.10;;;20.60;55.70;;;;;;4994826;28;20053;-64
2022/01/04 07:29:55;;;;;;;3.78;1.30;;;20.60;55.90;;;;;;4994204;28;20050;-64
2022/01/04 07:32:21;;;;;;;6.03;1.40;;;20.70;55.80;;;;;;4995975;28;20046;-64
2022/01/04 07:34:46;;;;;;;4.15;1.77;;;20.70;55.80;;;;;;4996122;28;20050;-64
2022/01/04 07:37:13;;;;;;;3.65;1.52;;;20.70;55.80;;;;;;4995702;28;20046;-64
2022/01/04 07:39:39;;;;;;;6.13;1.50;;;20.70;55.80;;;;;;4996393;28;20486;-64
2022/01/04 07:42:05;;;;;;;4.95;1.50;;;20.70;55.80;;;;;;4994881;28;20117;-64
2022/01/04 07:44:30;;;;;;;6.20;1.45;;;20.70;55.90;;;;;;4996696;28;20053;-63
2022/01/04 07:46:56;;;;;;;4.65;1.55;;;20.80;55.90;;;;;;4985623;28;20042;-63
2022/01/04 07:49:21;;;;;;;5.53;1.58;;;20.80;56.00;;;;;;4979816;28;20046;-61
2022/01/04 07:51:47;;;;;;;3.28;1.50;;;20.80;56.10;;;;;;4976582;28;20129;-64
2022/01/04 07:54:12;;;;;;;4.47;1.88;;;20.80;56.20;;;;;;4984639;28;20042;-62
2022/01/04 07:56:38;;;;;;;4.35;1.75;;;20.80;56.30;;;;;;4996393;28;20030;-64
2022/01/04 07:59:04;;;;;;;4.88;1.80;;;20.80;56.50;;;;;;4981643;28;20050;-62
2022/01/04 08:01:30;;;;;;;4.90;1.52;;;20.80;56.60;;;;;;5001065;28;20033;-63
2022/01/04 08:03:56;;;;;;;7.53;1.75;;;20.80;57.40;;;;;;4999837;28;20057;-61
2022/01/04 08:06:21;;;;;;;3.83;1.48;;;20.80;56.80;;;;;;5003835;28;20046;-62
2022/01/04 08:08:47;;;;;;;4.75;1.70;;;20.90;56.80;;;;;;5001629;28;20157;-62
2022/01/04 08:11:14;;;;;;;5.22;1.73;;;20.90;56.80;;;;;;4995047;28;20053;-64
2022/01/04 08:13:39;;;;;;;6.65;1.90;;;20.90;56.80;;;;;;4995449;28;20058;-64
2022/01/04 08:16:05;;;;;;;5.95;1.92;;;20.90;56.90;;;;;;5014710;28;20046;-62
2022/01/04 08:18:30;;;;;;;5.72;1.80;;;20.90;56.80;;;;;;4997454;28;20057;-62
2022/01/04 08:20:57;;;;;;;7.30;1.75;;;20.90;56.90;;;;;;5011855;28;20081;-62
2022/01/04 08:23:24;;;;;;;16.65;1.88;;;20.90;57.00;;;;;;5013390;28;20041;-61
2022/01/04 08:25:50;;;;;;;11.32;1.67;;;21.00;57.00;;;;;;5014077;28;20077;-60
2022/01/04 08:28:16;;;;;;;4.32;1.35;;;21.00;57.10;;;;;;5014854;28;20489;-61
2022/01/04 08:30:42;;;;;;;5.25;1.50;;;21.00;57.20;;;;;;5014346;28;20077;-60
2022/01/04 08:33:09;;;;;;;6.07;1.95;;;21.00;57.20;;;;;;5012087;28;20057;-60
2022/01/04 08:35:34;;;;;;;5.13;1.73;;;21.00;57.30;;;;;;5002926;28;20113;-60
2022/01/04 08:38:00;;;;;;;5.65;1.60;;;21.00;57.30;;;;;;4997594;28;20334;-60
2022/01/04 08:40:25;;;;;;;6.18;1.73;;;21.00;57.40;;;;;;5003309;28;20085;-61
2022/01/04 08:42:51;;;;;;;4.80;1.60;;;21.00;57.50;;;;;;5013516;28;20050;-62
2022/01/04 08:45:17;;;;;;;5.97;1.58;;;21.00;57.50;;;;;;5013193;28;20049;-60
2022/01/04 08:47:43;;;;;;;4.93;1.35;;;21.10;57.60;;;;;;5015181;28;20057;-61
2022/01/04 08:50:10;;;;;;;7.70;2.10;;;21.00;57.50;;;;;;5014628;28;20042;-61
2022/01/04 08:52:35;;;;;;;6.05;1.95;;;21.00;57.40;;;;;;5014613;28;20041;-61
2022/01/04 08:55:01;;;;;;;5.53;1.85;;;21.10;57.60;;;;;;5014550;28;20576;-61
2022/01/04 08:57:27;;;;;;;4.15;1.55;;;21.10;57.60;;;;;;5014463;28;20505;-61
2022/01/04 08:59:54;;;;;;;7.10;1.80;;;21.10;57.70;;;;;;5013537;28;20129;-60
2022/01/04 09:02:21;;;;;;;7.85;1.50;;;21.10;57.70;;;;;;5014769;28;20042;-61
2022/01/04 09:04:46;;;;;;;8.00;1.85;;;21.10;57.70;;;;;;5012386;28;20054;-62
2022/01/04 09:07:13;;;;;;;11.50;2.03;;;21.10;57.70;;;;;;5010933;28;20064;-60
2022/01/04 09:09:39;;;;;;;4.63;1.65;;;21.10;57.60;;;;;;5004771;28;20054;-59
2022/01/04 09:12:05;;;;;;;6.40;2.10;;;21.10;57.70;;;;;;5002721;28;20042;-60
2022/01/04 09:14:43;;;;;;;4.18;2.05;;;21.10;57.70;;;;;;5003310;28;20049;-61
2022/01/04 09:19:52;;;;;;;4.47;1.85;;;21.20;57.60;;;;;;4992553;28;20020;-60
2022/01/04 09:22:18;;;;;;;7.43;2.55;;;21.10;57.60;;;;;;4993194;28;20125;-59
2022/01/04 09:24:43;;;;;;;7.40;2.22;;;21.20;57.50;;;;;;5008247;28;20037;-60
2022/01/04 09:27:10;;;;;;;5.75;2.30;;;21.20;57.50;;;;;;5011548;28;20050;-61
2022/01/04 09:29:35;;;;;;;6.97;2.00;;;21.20;58.10;;;;;;5014343;28;20038;-61
2022/01/04 09:32:02;;;;;;;5.00;2.30;;;21.20;57.50;;;;;;5013853;28;20052;-59
2022/01/04 09:34:28;;;;;;;6.50;2.88;;;21.20;57.60;;;;;;4995855;28;20046;-58
2022/01/04 09:36:53;;;;;;;10.10;2.45;;;21.20;57.40;;;;;;5013595;28;20046;-62
2022/01/04 09:39:24;;;;;;;10.00;2.50;;;21.20;57.30;;;;;;5013786;28;20080;-59
2022/01/04 09:41:50;;;;;;;8.98;2.30;;;21.20;57.50;;;;;;5013181;28;20038;-61
2022/01/04 09:44:16;;;;;;;7.72;2.47;;;21.20;57.60;;;;;;5013863;28;20042;-61
2022/01/04 09:46:41;;;;;;;5.15;2.40;;;21.20;57.50;;;;;;5013817;28;20052;-60
2022/01/04 09:49:08;;;;;;;7.50;2.40;;;21.20;57.50;;;;;;5012178;28;20042;-62
2022/01/04 09:51:34;;;;;;;6.55;2.80;;;21.20;57.50;;;;;;5013489;28;20048;-61
2022/01/04 09:54:00;;;;;;;4.32;2.08;;;21.20;57.50;;;;;;4995378;28;20410;-60
2022/01/04 09:56:25;;;;;;;5.65;2.67;;;21.20;57.40;;;;;;5013573;28;20073;-60
2022/01/04 09:58:51;;;;;;;9.68;2.63;;;21.20;57.40;;;;;;5013018;28;20085;-61
2022/01/04 10:01:24;;;;;;;6.28;2.50;;;21.20;57.20;;;;;;5012862;28;20046;-61
2022/01/04 10:03:50;;;;;;;5.90;2.25;;;21.20;57.20;;;;;;5011666;28;20045;-62
2022/01/04 10:06:15;;;;;;;5.20;2.30;;;21.20;57.20;;;;;;5012067;28;20048;-61
2022/01/04 10:09:04;;;;;;;5.03;1.95;;;21.20;57.30;;;;;;5012336;28;20057;-60
2022/01/04 10:11:34;;;;;;;6.70;2.47;;;21.20;57.40;;;;;;5013892;28;20209;-59
2022/01/04 10:14:00;;;;;;;21.90;6.75;;;21.20;57.40;;;;;;5028177;28;20081;-62
2022/01/04 10:16:26;;;;;;;27.13;8.63;;;21.20;58.00;;;;;;5011414;28;20053;-61
2022/01/04 10:18:53;;;;;;;16.50;6.32;;;21.30;58.70;;;;;;5013076;28;20049;-59
2022/01/04 10:21:19;;;;;;;24.77;9.10;;;21.30;58.80;;;;;;5012169;28;20042;-63
2022/01/04 10:23:47;;;;;;;25.52;9.60;;;21.30;58.60;;;;;;5012359;28;20056;-61
2022/01/04 10:26:13;;;;;;;27.73;9.95;;;21.30;58.90;;;;;;5012661;28;20050;-61
2022/01/04 10:28:40;;;;;;;22.73;8.18;;;21.30;59.10;;;;;;5001467;28;20049;-62
2022/01/04 10:31:07;;;;;;;49.33;21.75;;;21.30;59.20;;;;;;5003308;28;20034;-62
2022/01/04 10:33:34;;;;;;;31.05;13.77;;;21.40;59.50;;;;;;5001163;28;20050;-61
2022/01/04 10:36:00;;;;;;;30.13;13.02;;;21.40;59.90;;;;;;5003075;28;20045;-65
2022/01/04 10:38:30;;;;;;;32.25;12.80;;;21.40;60.00;;;;;;5001989;28;20042;-64
2022/01/04 10:41:02;;;;;;;27.88;11.27;;;21.40;60.60;;;;;;5011344;28;20053;-63
2022/01/04 10:43:33;;;;;;;21.48;9.05;;;21.50;60.50;;;;;;5012887;28;20046;-60
2022/01/04 10:46:00;;;;;;;41.50;15.55;;;21.50;60.10;;;;;;5013095;28;20088;-62
2022/01/04 10:48:28;;;;;;;40.70;15.52;;;21.50;60.20;;;;;;5006547;28;20038;-62
2022/01/04 10:50:55;;;;;;;38.30;15.07;;;21.50;60.70;;;;;;5000787;28;20046;-63
2022/01/04 10:53:28;;;;;;;32.25;11.88;;;21.50;60.90;;;;;;5003690;28;20041;-65
2022/01/04 10:55:55;;;;;;;50.40;21.95;;;21.50;61.20;;;;;;5002929;28;20132;-63
2022/01/04 10:58:29;;;;;;;35.60;14.65;;;21.50;61.30;;;;;;5000492;28;20050;-63
2022/01/04 11:01:03;;;;;;;53.30;18.05;;;21.50;61.50;;;;;;4996535;28;20053;-61
2022/01/04 11:03:31;;;;;;;54.55;17.42;;;21.50;61.50;;;;;;4993064;28;20038;-65
2022/01/04 11:06:09;;;;;;;41.38;15.30;;;21.50;61.90;;;;;;4992280;28;20410;-63
2022/01/04 11:08:35;;;;;;;59.63;21.83;;;21.60;61.90;;;;;;4992750;28;20054;-64
2022/01/04 11:11:01;;;;;;;41.45;17.20;;;21.60;62.60;;;;;;4995307;28;20406;-63
2022/01/04 11:13:27;;;;;;;41.25;16.67;;;21.60;62.60;;;;;;4992495;28;20169;-62
2022/01/04 11:15:52;;;;;;;38.10;16.10;;;21.60;62.40;;;;;;4992445;28;20478;-63
2022/01/04 11:18:18;;;;;;;45.75;18.27;;;21.50;62.40;;;;;;4993063;28;20042;-64
2022/01/04 11:20:44;;;;;;;32.08;14.15;;;21.60;62.70;;;;;;4992123;28;20045;-62
2022/01/04 11:23:09;;;;;;;33.42;13.38;;;21.50;62.40;;;;;;4992551;28;20054;-61
2022/01/04 11:25:35;;;;;;;33.15;13.75;;;21.50;62.20;;;;;;4993869;28;20030;-62
2022/01/04 11:28:01;;;;;;;34.72;12.98;;;21.50;62.30;;;;;;4992342;28;20601;-62
2022/01/04 11:30:44;;;;;;;31.73;13.95;;;21.50;62.30;;;;;;5012364;28;20041;-61
2022/01/04 11:33:20;;;;;;;36.03;12.75;;;21.50;62.20;;;;;;5010879;28;20057;-61
2022/01/04 11:35:47;;;;;;;30.25;12.23;;;21.50;62.10;;;;;;5010872;28;20041;-61
2022/01/04 11:38:12;;;;;;;39.13;16.65;;;21.50;62.00;;;;;;5010824;28;20046;-62
2022/01/04 11:40:41;;;;;;;32.53;14.48;;;21.50;62.20;;;;;;4994618;28;20042;-62
2022/01/04 11:43:26;;;;;;;32.95;12.43;;;21.50;62.20;;;;;;5007852;28;20046;-61
2022/01/04 11:45:52;;;;;;;28.48;11.63;;;21.50;62.00;;;;;;4992596;28;20049;-61
2022/01/04 11:48:43;;;;;;;27.67;12.55;;;21.50;61.90;;;;;;4992028;28;20054;-62
2022/01/04 11:51:24;;;;;;;27.23;10.40;;;21.50;62.00;;;;;;4995044;28;20482;-60
2022/01/04 11:54:16;;;;;;;28.10;11.63;;;21.50;61.90;;;;;;4992587;28;20157;-60
2022/01/04 11:56:54;;;;;;;23.00;8.95;;;21.50;61.70;;;;;;4994707;28;20050;-60
2022/01/04 11:59:24;;;;;;;26.33;9.65;;;21.50;61.20;;;;;;4995736;28;20053;-60
2022/01/04 12:01:50;;;;;;;24.50;9.20;;;21.50;61.20;;;;;;4995489;28;20038;-60
2022/01/04 12:04:48;;;;;;;23.45;9.45;;;21.40;61.10;;;;;;4996229;28;20050;-60
2022/01/04 12:07:44;;;;;;;25.15;8.90;;;21.40;61.00;;;;;;4996239;28;20120;-60
2022/01/04 12:10:21;;;;;;;19.52;8.13;;;21.30;60.90;;;;;;4996222;28;20053;-60
2022/01/04 12:13:06;;;;;;;16.73;8.10;;;21.30;60.90;;;;;;4995606;28;20097;-60
2022/01/04 12:15:35;;;;;;;21.38;7.38;;;21.30;60.90;;;;;;4995767;28;20042;-60
2022/01/04 12:18:22;;;;;;;14.68;6.60;;;21.30;60.90;;;;;;4995297;28;21104;-60
2022/01/04 12:20:52;;;;;;;19.77;7.15;;;21.30;60.50;;;;;;4994205;28;20481;-60
2022/01/04 12:23:26;;;;;;;15.48;6.55;;;21.20;60.30;;;;;;4994178;28;20168;-64
2022/01/04 12:26:04;;;;;;;16.73;6.35;;;21.20;60.20;;;;;;5000049;28;20061;-64
2022/01/04 12:28:31;;;;;;;18.10;6.50;;;21.20;60.00;;;;;;5002269;28;20038;-63
2022/01/04 12:31:16;;;;;;;16.63;6.00;;;21.20;60.10;;;;;;4999705;28;20042;-61
2022/01/04 12:34:01;;;;;;;14.48;5.57;;;21.20;60.00;;;;;;4999803;28;20504;-62
2022/01/04 12:36:42;;;;;;;13.20;5.25;;;21.20;60.00;;;;;;5000042;28;20129;-64
2022/01/04 12:39:16;;;;;;;15.80;5.80;;;21.20;60.00;;;;;;5000191;28;20493;-63
2022/01/04 12:41:43;;;;;;;16.10;5.20;;;21.10;60.00;;;;;;5008492;28;20053;-63
2022/01/04 12:44:10;;;;;;;15.10;5.03;;;21.10;60.70;;;;;;5010607;28;20144;-63
2022/01/04 12:46:38;;;;;;;15.23;4.83;;;21.10;60.10;;;;;;5011626;28;20046;-63
2022/01/04 12:49:09;;;;;;;14.70;4.75;;;21.20;60.10;;;;;;5011148;28;20057;-61
2022/01/04 12:51:38;;;;;;;14.80;5.22;;;21.10;60.10;;;;;;4993461;28;20042;-62
2022/01/04 12:54:03;;;;;;;13.07;4.78;;;21.20;60.10;;;;;;4998544;28;20413;-61
2022/01/04 12:56:29;;;;;;;15.50;4.63;;;21.10;60.10;;;;;;5000770;28;20474;-61
2022/01/04 12:58:55;;;;;;;15.55;4.82;;;21.20;60.10;;;;;;4993680;28;20050;-63